createdAt,value
2022-10-24T00:01:22.110Z,19.48
2022-10-24T00:03:50.291Z,21.48
2022-10-24T00:06:19.334Z,24.08
2022-10-24T00:08:47.246Z,22.48
2022-10-24T00:11:22.999Z,17.33
2022-10-24T00:13:51.186Z,18.38
2022-10-24T00:16:18.676Z,20.50
2022-10-24T00:18:45.715Z,21.15
2022-10-24T00:21:13.161Z,24.20
2022-10-24T00:23:40.131Z,20.92
2022-10-24T00:26:07.866Z,27.63
2022-10-24T00:28:37.580Z,24.00
2022-10-24T00:31:07.525Z,28.88
2022-10-24T00:33:34.783Z,27.13
2022-10-24T00:36:01.629Z,24.20
2022-10-24T00:38:28.406Z,27.63
2022-10-24T00:40:55.235Z,25.70
2022-10-24T00:43:26.131Z,24.13
2022-10-24T00:45:59.192Z,25.52
2022-10-24T00:48:35.459Z,24.02
2022-10-24T00:51:17.079Z,22.65
2022-10-24T00:53:49.679Z,26.33
2022-10-24T00:56:22.929Z,25.70
2022-10-24T00:58:52.267Z,23.08
2022-10-24T01:01:19.795Z,23.92
2022-10-24T01:03:46.650Z,23.35
2022-10-24T01:06:28.125Z,24.55
2022-10-24T01:09:28.168Z,24.30
2022-10-24T01:12:32.500Z,21.27
2022-10-24T01:15:28.085Z,24.00
2022-10-24T01:18:24.682Z,27.17
2022-10-24T01:21:11.356Z,21.30
2022-10-24T01:24:09.172Z,20.23
2022-10-24T01:27:07.914Z,18.83
2022-10-24T01:30:14.733Z,19.95
2022-10-24T01:32:53.013Z,17.27
2022-10-24T01:35:45.997Z,20.88
2022-10-24T01:38:37.924Z,21.95
2022-10-24T01:41:22.914Z,20.50
2022-10-24T01:44:05.099Z,22.90
2022-10-24T01:46:45.603Z,20.63
2022-10-24T01:49:22.969Z,20.25
2022-10-24T01:51:57.431Z,22.70
2022-10-24T01:54:24.801Z,21.30
2022-10-24T01:56:51.964Z,18.90
2022-10-24T01:59:30.322Z,18.73
2022-10-24T02:02:42.080Z,18.90
2022-10-24T02:05:21.304Z,17.92
2022-10-24T02:07:54.589Z,19.38
2022-10-24T02:10:31.426Z,21.30
2022-10-24T02:13:07.567Z,18.65
2022-10-24T02:15:41.845Z,19.67
2022-10-24T02:18:10.494Z,15.65
2022-10-24T02:20:55.646Z,22.02
2022-10-24T02:23:30.936Z,23.75
2022-10-24T02:26:02.247Z,19.60
2022-10-24T02:28:45.323Z,18.88
2022-10-24T02:31:21.793Z,20.75
2022-10-24T02:33:51.755Z,22.77
2022-10-24T02:36:28.644Z,23.90
2022-10-24T02:38:57.734Z,18.23
2022-10-24T02:41:31.862Z,18.50
2022-10-24T02:44:02.340Z,19.23
2022-10-24T02:46:32.646Z,23.45
2022-10-24T02:49:02.927Z,24.70
2022-10-24T02:51:38.447Z,21.98
2022-10-24T02:54:05.881Z,21.20
2022-10-24T02:56:33.527Z,22.38
2022-10-24T02:59:00.503Z,22.48
2022-10-24T03:01:27.452Z,22.30
2022-10-24T03:03:54.374Z,21.25
2022-10-24T03:06:21.179Z,19.23
2022-10-24T03:08:48.160Z,26.23
2022-10-24T03:11:15.067Z,23.17
2022-10-24T03:13:41.894Z,22.20
2022-10-24T03:16:11.620Z,22.92
2022-10-24T03:18:40.940Z,21.80
2022-10-24T03:21:07.884Z,20.35
2022-10-24T03:23:34.720Z,23.63
2022-10-24T03:26:01.613Z,22.17
2022-10-24T03:28:28.535Z,25.48
2022-10-24T03:30:56.319Z,19.67
2022-10-24T03:33:23.717Z,20.60
2022-10-24T03:35:54.941Z,22.33
2022-10-24T03:38:23.572Z,20.95
2022-10-24T03:40:51.529Z,25.05
2022-10-24T03:43:18.820Z,26.08
2022-10-24T03:45:45.878Z,25.48
2022-10-24T03:48:13.111Z,22.45
2022-10-24T03:50:40.423Z,22.65
2022-10-24T03:53:07.294Z,23.15
2022-10-24T03:55:35.106Z,22.00
2022-10-24T03:58:02.136Z,23.88
2022-10-24T04:00:29.273Z,22.67
2022-10-24T04:02:56.628Z,22.13
2022-10-24T04:05:23.614Z,26.20
2022-10-24T04:07:50.503Z,28.83
2022-10-24T04:10:17.494Z,23.88
2022-10-24T04:12:44.324Z,24.60
2022-10-24T04:15:11.469Z,23.13
2022-10-24T04:17:38.586Z,27.73
2022-10-24T04:20:07.046Z,25.52
2022-10-24T04:22:34.206Z,24.58
2022-10-24T04:25:01.054Z,21.73
2022-10-24T04:27:28.041Z,27.52
2022-10-24T04:29:55.421Z,31.67
2022-10-24T04:32:22.283Z,29.30
2022-10-24T04:34:49.316Z,25.85
2022-10-24T04:37:16.211Z,30.45
2022-10-24T04:39:43.199Z,25.00
2022-10-24T04:42:10.102Z,26.80
2022-10-24T04:44:36.859Z,27.75
2022-10-24T04:47:03.703Z,23.60
2022-10-24T04:49:30.571Z,28.42
2022-10-24T04:51:57.408Z,26.55
2022-10-24T04:54:24.203Z,25.08
2022-10-24T04:56:51.034Z,24.58
2022-10-24T04:59:17.835Z,28.13
2022-10-24T05:01:44.736Z,27.65
2022-10-24T05:04:12.580Z,24.92
2022-10-24T05:06:42.696Z,25.05
2022-10-24T05:09:12.452Z,26.77
2022-10-24T05:11:39.445Z,25.77
2022-10-24T05:14:06.374Z,21.50
2022-10-24T05:16:33.646Z,24.05
2022-10-24T05:19:00.466Z,21.42
2022-10-24T05:21:27.355Z,24.35
2022-10-24T05:23:54.163Z,23.42
2022-10-24T05:26:20.967Z,20.50
2022-10-24T05:28:51.647Z,22.08
2022-10-24T05:31:19.873Z,22.65
2022-10-24T05:33:46.881Z,20.02
2022-10-24T05:36:13.885Z,27.90
2022-10-24T05:38:40.899Z,20.45
2022-10-24T05:41:07.790Z,21.50
2022-10-24T05:43:34.637Z,20.75
2022-10-24T05:46:01.657Z,23.58
2022-10-24T05:48:28.568Z,24.45
2022-10-24T05:50:59.140Z,19.33
2022-10-24T05:53:27.177Z,23.77
2022-10-24T05:55:54.114Z,25.13
2022-10-24T05:58:22.297Z,19.65
2022-10-24T06:00:53.824Z,18.10
2022-10-24T06:03:21.621Z,20.05
2022-10-24T06:05:49.103Z,20.65
2022-10-24T06:08:15.984Z,23.15
2022-10-24T06:10:47.834Z,18.50
2022-10-24T06:13:16.040Z,17.77
2022-10-24T06:15:44.569Z,17.13
2022-10-24T06:18:11.923Z,17.77
2022-10-24T06:20:38.989Z,16.25
2022-10-24T06:23:05.830Z,20.92
2022-10-24T06:25:32.719Z,20.00
2022-10-24T06:28:00.481Z,14.23
2022-10-24T06:30:27.493Z,15.38
2022-10-24T06:32:54.405Z,18.33
2022-10-24T06:35:21.263Z,15.68
2022-10-24T06:37:48.572Z,14.82
2022-10-24T06:40:17.817Z,15.45
2022-10-24T06:42:45.590Z,13.10
2022-10-24T06:45:12.986Z,15.30
2022-10-24T06:47:39.915Z,15.93
2022-10-24T06:50:07.641Z,15.15
2022-10-24T06:52:35.915Z,14.52
2022-10-24T06:55:02.941Z,14.48
2022-10-24T06:57:29.777Z,12.90
2022-10-24T06:59:56.645Z,13.50
2022-10-24T07:02:23.755Z,15.13
2022-10-24T07:04:50.809Z,13.48
2022-10-24T07:07:22.321Z,11.98
2022-10-24T07:09:56.696Z,16.85
2022-10-24T07:12:25.381Z,14.30
2022-10-24T07:14:52.751Z,15.15
2022-10-24T07:17:20.955Z,13.27
2022-10-24T07:19:54.300Z,13.45
2022-10-24T07:22:21.342Z,11.27
2022-10-24T07:24:54.449Z,11.75
2022-10-24T07:27:23.036Z,12.38
2022-10-24T07:29:51.470Z,11.13
2022-10-24T07:32:19.463Z,10.93
2022-10-24T07:34:47.757Z,12.23
2022-10-24T07:37:16.602Z,11.55
2022-10-24T07:39:46.473Z,12.20
2022-10-24T07:42:15.469Z,11.90
2022-10-24T07:44:42.408Z,10.70
2022-10-24T07:47:10.125Z,8.88
2022-10-24T07:49:39.080Z,10.65
2022-10-24T07:52:08.403Z,14.43
2022-10-24T07:54:37.322Z,10.10
2022-10-24T07:57:06.217Z,11.32
2022-10-24T07:59:42.473Z,10.98
2022-10-24T08:02:14.791Z,10.77
2022-10-24T08:04:43.063Z,10.63
2022-10-24T08:07:15.345Z,13.13
2022-10-24T08:09:48.047Z,9.95
2022-10-24T08:12:16.268Z,10.55
2022-10-24T08:14:45.954Z,10.75
2022-10-24T08:17:21.910Z,11.02
2022-10-24T08:19:53.441Z,10.13
2022-10-24T08:22:22.461Z,9.88
2022-10-24T08:24:53.154Z,10.45
2022-10-24T08:27:49.936Z,11.40
2022-10-24T08:30:17.839Z,14.15
2022-10-24T08:32:45.622Z,12.57
2022-10-24T08:35:23.161Z,12.90
2022-10-24T08:37:59.418Z,9.63
2022-10-24T08:40:30.861Z,11.48
2022-10-24T08:43:13.992Z,11.27
2022-10-24T08:46:38.885Z,9.43
2022-10-24T08:50:03.913Z,13.82
2022-10-24T08:56:10.977Z,10.85
2022-10-24T09:01:48.624Z,8.18
2022-10-24T09:04:25.492Z,8.87
2022-10-24T09:06:57.895Z,9.65
2022-10-24T09:09:35.996Z,9.30
2022-10-24T09:12:13.422Z,9.88
2022-10-24T09:14:45.449Z,10.43
2022-10-24T09:17:31.244Z,10.63
2022-10-24T09:20:29.017Z,7.72
2022-10-24T09:23:00.878Z,7.65
2022-10-24T09:25:35.293Z,8.38
2022-10-24T09:28:06.243Z,7.65
2022-10-24T09:30:36.382Z,9.15
2022-10-24T09:33:29.713Z,9.60
2022-10-24T09:36:00.666Z,10.20
2022-10-24T09:38:38.155Z,7.07
2022-10-24T09:41:13.681Z,7.63
2022-10-24T09:43:56.459Z,8.05
2022-10-24T09:46:36.024Z,11.93
2022-10-24T09:49:23.941Z,7.70
2022-10-24T09:52:04.526Z,12.82
2022-10-24T09:54:35.631Z,10.43
2022-10-24T09:57:12.719Z,7.97
2022-10-24T09:59:46.933Z,7.40
2022-10-24T10:02:37.747Z,7.60
2022-10-24T10:05:04.554Z,9.48
2022-10-24T10:07:34.962Z,8.20
2022-10-24T10:10:35.092Z,9.15
2022-10-24T10:13:15.470Z,8.80
2022-10-24T10:15:54.411Z,10.07
2022-10-24T10:18:27.193Z,8.77
2022-10-24T10:21:13.215Z,8.20
2022-10-24T10:23:56.090Z,7.45
2022-10-24T10:26:29.945Z,7.85
2022-10-24T10:29:20.793Z,6.97
2022-10-24T10:32:07.837Z,9.77
2022-10-24T10:34:56.923Z,9.00
2022-10-24T10:37:47.299Z,7.53
2022-10-24T10:40:23.133Z,6.10
2022-10-24T10:43:06.025Z,9.00
2022-10-24T10:45:42.200Z,7.22
2022-10-24T10:48:52.900Z,9.07
2022-10-24T10:51:50.049Z,10.50
2022-10-24T10:54:51.939Z,7.90
2022-10-24T10:57:32.739Z,6.47
2022-10-24T11:00:32.405Z,5.53
2022-10-24T11:03:42.277Z,7.28
2022-10-24T11:06:36.732Z,8.35
2022-10-24T11:09:20.032Z,8.38
2022-10-24T11:12:14.963Z,9.65
2022-10-24T11:14:51.405Z,6.65
2022-10-24T11:17:37.832Z,10.10
2022-10-24T11:20:19.760Z,7.65
2022-10-24T11:26:17.714Z,8.63
2022-10-24T11:29:31.238Z,8.55
2022-10-24T11:32:15.314Z,6.72
2022-10-24T11:35:33.254Z,8.45
2022-10-24T11:38:25.488Z,8.52
2022-10-24T11:41:16.375Z,10.90
2022-10-24T11:43:47.404Z,8.93
2022-10-24T11:46:27.273Z,10.27
2022-10-24T11:49:23.034Z,6.00
2022-10-24T11:51:59.322Z,5.07
2022-10-24T11:54:38.225Z,5.80
2022-10-24T11:57:15.583Z,5.72
2022-10-24T11:59:43.390Z,7.45
2022-10-24T12:03:09.864Z,4.35
2022-10-24T12:06:11.970Z,7.53
2022-10-24T12:09:22.731Z,5.78
2022-10-24T12:12:26.094Z,8.70
2022-10-24T12:15:06.045Z,6.07
2022-10-24T12:18:06.759Z,8.07
2022-10-24T12:20:35.379Z,4.10
2022-10-24T12:23:03.524Z,8.40
2022-10-24T12:25:38.424Z,7.18
2022-10-24T12:31:08.271Z,2.95
2022-10-24T12:33:35.241Z,5.50
2022-10-24T12:36:02.077Z,4.55
2022-10-24T12:38:28.859Z,4.88
2022-10-24T12:40:58.888Z,5.68
2022-10-24T12:43:33.229Z,4.82
2022-10-24T12:46:23.456Z,4.63
2022-10-24T12:48:59.705Z,4.60
2022-10-24T12:51:29.512Z,5.68
2022-10-24T12:54:11.565Z,5.22
2022-10-24T12:56:51.183Z,4.63
2022-10-24T12:59:25.109Z,3.88
2022-10-24T13:02:11.065Z,9.73
2022-10-24T13:05:29.238Z,3.03
2022-10-24T13:08:16.084Z,4.13
2022-10-24T13:11:14.836Z,5.43
2022-10-24T13:14:02.681Z,3.90
2022-10-24T13:17:11.076Z,1.35
2022-10-24T13:19:38.533Z,2.75
2022-10-24T13:22:25.461Z,4.10
2022-10-24T13:24:52.398Z,1.33
2022-10-24T13:27:30.504Z,3.33
2022-10-24T13:30:22.087Z,1.10
2022-10-24T13:32:48.987Z,2.20
2022-10-24T13:35:24.299Z,7.97
2022-10-24T13:37:59.149Z,6.00
2022-10-24T13:40:35.509Z,4.45
2022-10-24T13:45:52.689Z,6.43
2022-10-24T13:48:28.912Z,3.47
2022-10-24T13:51:21.800Z,6.13
2022-10-24T13:54:02.234Z,3.83
2022-10-24T13:56:37.405Z,2.03
2022-10-24T13:59:04.654Z,3.05
2022-10-24T14:01:31.752Z,4.85
2022-10-24T14:04:00.566Z,4.80
2022-10-24T14:06:33.713Z,1.73
2022-10-24T14:09:09.167Z,4.15
2022-10-24T14:11:43.666Z,1.83
2022-10-24T14:14:37.365Z,2.47
2022-10-24T14:17:29.242Z,3.30
2022-10-24T14:20:17.914Z,3.25
2022-10-24T14:22:45.136Z,4.28
2022-10-24T14:25:28.288Z,3.30
2022-10-24T14:27:59.691Z,3.63
2022-10-24T14:30:34.499Z,2.33
2022-10-24T14:33:17.377Z,2.78
2022-10-24T14:35:44.735Z,2.85
2022-10-24T14:38:15.934Z,2.20
2022-10-24T14:40:45.022Z,2.85
2022-10-24T14:43:24.950Z,2.38
2022-10-24T14:46:13.051Z,2.10
2022-10-24T14:48:46.424Z,1.55
2022-10-24T14:51:39.374Z,2.33
2022-10-24T14:54:20.724Z,1.45
2022-10-24T14:56:48.530Z,2.30
2022-10-24T14:59:25.996Z,3.50
2022-10-24T15:02:00.704Z,1.83
2022-10-24T15:04:46.278Z,2.75
2022-10-24T15:07:36.626Z,2.75
2022-10-24T15:10:13.349Z,5.38
2022-10-24T15:13:02.192Z,1.88
2022-10-24T15:15:34.553Z,3.10
2022-10-24T15:18:19.587Z,2.63
2022-10-24T15:20:49.766Z,3.13
2022-10-24T15:23:34.139Z,4.38
2022-10-24T15:26:10.710Z,2.33
2022-10-24T15:29:05.057Z,2.78
2022-10-24T15:31:38.095Z,2.20
2022-10-24T15:34:07.631Z,3.03
2022-10-24T15:36:40.513Z,2.65
2022-10-24T15:39:16.117Z,2.47
2022-10-24T15:41:43.053Z,2.65
2022-10-24T15:44:27.296Z,2.20
2022-10-24T15:46:55.173Z,1.73
2022-10-24T15:49:22.329Z,2.63
2022-10-24T15:51:50.969Z,2.47
2022-10-24T15:54:21.453Z,2.25
2022-10-24T15:56:49.811Z,2.35
2022-10-24T15:59:18.656Z,2.42
2022-10-24T16:01:52.555Z,2.60
2022-10-24T16:04:20.916Z,2.47
2022-10-24T16:06:49.672Z,4.15
2022-10-24T16:09:21.568Z,4.18
2022-10-24T16:11:49.065Z,4.80
2022-10-24T16:14:19.570Z,4.30
2022-10-24T16:16:46.847Z,4.35
2022-10-24T16:19:14.809Z,4.38
2022-10-24T16:21:42.776Z,4.38
2022-10-24T16:24:12.645Z,8.40
2022-10-24T16:26:40.599Z,4.75
2022-10-24T16:29:07.654Z,3.75
2022-10-24T16:31:34.500Z,4.07
2022-10-24T16:34:01.899Z,3.60
2022-10-24T16:36:29.554Z,5.10
2022-10-24T16:38:57.012Z,3.60
2022-10-24T16:41:26.268Z,2.30
2022-10-24T16:43:57.685Z,3.60
2022-10-24T16:46:27.783Z,3.63
2022-10-24T16:48:54.833Z,2.15
2022-10-24T16:51:32.385Z,4.35
2022-10-24T16:54:02.027Z,3.95
2022-10-24T16:56:30.691Z,2.65
2022-10-24T16:58:57.769Z,3.15
2022-10-24T17:01:27.286Z,3.38
2022-10-24T17:03:54.764Z,3.92
2022-10-24T17:06:21.770Z,3.60
2022-10-24T17:08:48.658Z,3.17
2022-10-24T17:11:43.183Z,2.88
2022-10-24T17:14:02.458Z,4.78
2022-10-24T17:16:29.415Z,3.45
2022-10-24T17:19:12.438Z,3.58
2022-10-24T17:21:42.231Z,2.63
2022-10-24T17:24:12.998Z,5.35
2022-10-24T17:26:41.101Z,3.38
2022-10-24T17:29:12.069Z,3.10
2022-10-24T17:31:39.001Z,6.10
2022-10-24T17:34:06.234Z,4.55
2022-10-24T17:36:38.193Z,3.88
2022-10-24T17:39:20.399Z,7.82
2022-10-24T17:41:47.595Z,5.25
2022-10-24T17:44:18.167Z,3.45
2022-10-24T17:46:45.689Z,5.10
2022-10-24T17:49:17.759Z,3.55
2022-10-24T17:51:49.043Z,3.47
2022-10-24T17:54:16.595Z,4.93
2022-10-24T17:56:43.650Z,4.85
2022-10-24T17:59:10.587Z,5.97
2022-10-24T18:01:37.633Z,5.28
2022-10-24T18:04:04.848Z,5.32
2022-10-24T18:06:31.889Z,4.25
2022-10-24T18:08:58.910Z,3.28
2022-10-24T18:11:26.337Z,3.83
2022-10-24T18:13:53.466Z,4.22
2022-10-24T18:16:20.881Z,9.15
2022-10-24T18:18:48.178Z,5.03
2022-10-24T18:21:28.337Z,4.18
2022-10-24T18:23:56.787Z,6.55
2022-10-24T18:26:26.706Z,3.42
2022-10-24T18:28:55.559Z,7.28
2022-10-24T18:31:29.179Z,7.45
2022-10-24T18:34:06.071Z,4.85
2022-10-24T18:36:36.331Z,6.88
2022-10-24T18:39:04.232Z,4.88
2022-10-24T18:41:31.073Z,4.18
2022-10-24T18:44:01.975Z,4.45
2022-10-24T18:46:30.220Z,4.47
2022-10-24T18:48:57.570Z,6.90
2022-10-24T18:51:38.243Z,3.50
2022-10-24T18:54:13.955Z,4.65
2022-10-24T18:56:42.620Z,4.47
2022-10-24T18:59:15.917Z,7.13
2022-10-24T19:02:14.551Z,5.47
2022-10-24T19:04:43.808Z,6.32
2022-10-24T19:07:11.325Z,7.80
2022-10-24T19:09:38.434Z,4.45
2022-10-24T19:12:07.215Z,7.68
2022-10-24T19:14:34.493Z,5.70
2022-10-24T19:17:03.189Z,6.38
2022-10-24T19:19:37.220Z,5.93
2022-10-24T19:22:04.080Z,7.00
2022-10-24T19:24:31.723Z,6.15
2022-10-24T19:26:58.611Z,6.32
2022-10-24T19:29:25.608Z,4.68
2022-10-24T19:31:52.484Z,10.50
2022-10-24T19:34:19.390Z,6.63
2022-10-24T19:36:46.260Z,8.38
2022-10-24T19:39:13.122Z,6.82
2022-10-24T19:41:39.898Z,5.20
2022-10-24T19:44:06.846Z,6.15
2022-10-24T19:46:34.168Z,5.35
2022-10-24T19:49:01.254Z,7.43
2022-10-24T19:51:28.261Z,6.18
2022-10-24T19:53:56.989Z,6.68
2022-10-24T19:56:27.422Z,7.82
2022-10-24T19:58:55.673Z,7.40
2022-10-24T20:01:26.975Z,8.63
2022-10-24T20:03:57.641Z,6.82
2022-10-24T20:06:26.278Z,6.28
2022-10-24T20:08:53.651Z,5.90
2022-10-24T20:11:20.979Z,5.88
2022-10-24T20:13:50.240Z,9.48
2022-10-24T20:16:17.603Z,6.43
2022-10-24T20:18:44.852Z,7.70
2022-10-24T20:21:17.627Z,7.55
2022-10-24T20:23:46.968Z,6.25
2022-10-24T20:26:24.239Z,7.13
2022-10-24T20:28:54.909Z,6.68
2022-10-24T20:31:36.193Z,7.10
2022-10-24T20:34:09.572Z,6.00
2022-10-24T20:36:44.435Z,6.10
2022-10-24T20:39:14.569Z,7.28
2022-10-24T20:41:42.710Z,10.23
2022-10-24T20:44:10.949Z,8.43
2022-10-24T20:46:37.866Z,8.60
2022-10-24T20:49:04.988Z,7.45
2022-10-24T20:51:32.085Z,8.05
2022-10-24T20:53:59.254Z,8.27
2022-10-24T20:56:26.731Z,6.72
2022-10-24T20:58:55.451Z,7.75
2022-10-24T21:01:25.978Z,7.18
2022-10-24T21:03:55.153Z,9.07
2022-10-24T21:06:31.117Z,7.03
2022-10-24T21:09:01.141Z,9.73
2022-10-24T21:11:30.912Z,7.03
2022-10-24T21:14:05.435Z,6.05
2022-10-24T21:16:34.228Z,8.93
2022-10-24T21:19:01.968Z,6.15
2022-10-24T21:21:29.405Z,8.88
2022-10-24T21:24:04.511Z,7.38
2022-10-24T21:26:38.506Z,13.00
2022-10-24T21:29:31.607Z,9.52
2022-10-24T21:31:53.506Z,8.40
2022-10-24T21:34:20.824Z,8.23
2022-10-24T21:36:48.283Z,7.55
2022-10-24T21:39:16.774Z,8.23
2022-10-24T21:41:44.961Z,8.60
2022-10-24T21:44:12.436Z,10.07
2022-10-24T21:46:39.357Z,8.45
2022-10-24T21:49:06.153Z,10.85
2022-10-24T21:51:36.611Z,5.68
2022-10-24T21:54:15.906Z,8.18
2022-10-24T21:56:42.814Z,8.48
2022-10-24T21:59:16.860Z,7.47
2022-10-24T22:01:46.139Z,6.22
2022-10-24T22:04:14.490Z,7.72
2022-10-24T22:06:42.633Z,12.48
2022-10-24T22:09:14.794Z,7.03
2022-10-24T22:11:42.288Z,10.20
2022-10-24T22:14:13.173Z,11.73
2022-10-24T22:16:41.258Z,6.35
2022-10-24T22:19:08.464Z,8.02
2022-10-24T22:21:38.336Z,7.43
2022-10-24T22:24:12.236Z,8.55
2022-10-24T22:26:40.350Z,10.93
2022-10-24T22:29:09.715Z,7.78
2022-10-24T22:31:37.431Z,9.82
2022-10-24T22:34:04.900Z,8.30
2022-10-24T22:36:56.131Z,8.52
2022-10-24T22:39:26.060Z,10.10
2022-10-24T22:41:54.537Z,12.13
2022-10-24T22:44:22.815Z,7.80
2022-10-24T22:47:26.625Z,7.20
2022-10-24T22:50:22.614Z,7.97
2022-10-24T22:52:50.859Z,9.60
2022-10-24T22:55:32.816Z,13.35
2022-10-24T22:58:00.358Z,6.93
2022-10-24T23:00:27.748Z,9.05
2022-10-24T23:03:15.598Z,8.93
2022-10-24T23:05:57.173Z,6.15
2022-10-24T23:08:38.888Z,11.68
2022-10-24T23:11:07.043Z,6.25
2022-10-24T23:13:34.298Z,11.65
2022-10-24T23:16:41.338Z,7.63
2022-10-24T23:19:30.408Z,11.70
2022-10-24T23:22:18.186Z,9.98
2022-10-24T23:24:45.463Z,7.22
2022-10-24T23:27:12.185Z,9.57
2022-10-24T23:29:42.947Z,4.22
2022-10-24T23:32:33.708Z,10.13
2022-10-24T23:35:01.301Z,8.77
2022-10-24T23:37:34.657Z,8.30
2022-10-24T23:40:11.345Z,5.55
2022-10-24T23:42:38.700Z,6.75
2022-10-24T23:45:06.486Z,5.55
2022-10-24T23:48:13.286Z,6.78
2022-10-24T23:51:01.131Z,6.65
2022-10-24T23:53:53.146Z,8.43
2022-10-24T23:56:26.856Z,11.60
2022-10-24T23:58:54.611Z,5.88
